Time;durP1;ratioP1;P1;durP2;ratioP2;P2;SDS_P1;SDS_P2;PMS_P1;PMS_P2;Temp;Humidity;BMP_temperature;BMP_pressure;BME280_temperature;BME280_humidity;BME280_pressure;Samples;Min_cycle;Max_cycle;Signal;HPM_P1;HPM_P2
2021/01/29 00:01:18;;;;;;;17.55;10.30;;;0.00;94.70;;;;;;5053198;28;20082;-88
2021/01/29 00:03:44;;;;;;;15.00;9.38;;;0.00;94.60;;;;;;5053416;28;20052;-89
2021/01/29 00:06:10;;;;;;;13.75;8.30;;;-0.10;94.50;;;;;;5053372;28;20063;-89
2021/01/29 00:08:36;;;;;;;10.88;7.10;;;-0.10;94.50;;;;;;5052974;28;20059;-90
2021/01/29 00:11:03;;;;;;;9.95;6.75;;;-0.20;94.40;;;;;;5053369;28;20467;-89
2021/01/29 00:13:29;;;;;;;9.73;6.43;;;-0.20;94.40;;;;;;5053410;28;20025;-89
2021/01/29 00:15:56;;;;;;;10.10;6.90;;;-0.30;94.40;;;;;;5053214;28;20025;-89
2021/01/29 00:18:22;;;;;;;8.73;6.18;;;-0.40;94.50;;;;;;5053535;28;20437;-89
2021/01/29 00:20:48;;;;;;;9.55;6.55;;;-0.40;94.30;;;;;;5053112;28;20025;-90
2021/01/29 00:23:16;;;;;;;7.88;5.80;;;-0.60;94.00;;;;;;5053000;28;20028;-89
2021/01/29 00:25:46;;;;;;;9.13;6.15;;;-0.70;94.10;;;;;;5053265;28;20032;-89
2021/01/29 00:28:12;;;;;;;8.90;6.50;;;-0.80;94.10;;;;;;5052975;28;20021;-89
2021/01/29 00:30:38;;;;;;;10.60;6.60;;;-0.90;94.40;;;;;;5055468;28;20535;-89
2021/01/29 00:33:06;;;;;;;8.93;6.65;;;-1.00;94.00;;;;;;5057029;28;20060;-90
2021/01/29 00:35:32;;;;;;;11.23;7.25;;;-1.10;93.80;;;;;;5057479;28;20050;-88
2021/01/29 00:37:59;;;;;;;10.48;7.45;;;-1.10;94.10;;;;;;5056996;28;20091;-88
2021/01/29 00:40:25;;;;;;;12.02;6.75;;;-1.20;94.20;;;;;;5058012;28;20027;-89
2021/01/29 00:42:51;;;;;;;11.75;7.10;;;-1.20;94.20;;;;;;5056660;28;20035;-89
2021/01/29 00:45:20;;;;;;;12.75;7.43;;;-1.30;94.20;;;;;;5056991;28;20028;-89
2021/01/29 00:47:46;;;;;;;12.20;7.18;;;-1.30;94.30;;;;;;5056595;28;20028;-89
2021/01/29 00:50:12;;;;;;;9.82;6.78;;;-1.30;94.30;;;;;;5057926;28;20025;-88
2021/01/29 00:52:38;;;;;;;9.90;6.45;;;-1.40;94.20;;;;;;5056736;28;20554;-88
2021/01/29 00:55:05;;;;;;;11.77;6.82;;;-1.40;94.20;;;;;;5056574;28;20044;-89
2021/01/29 00:57:31;;;;;;;9.77;6.95;;;-1.50;94.10;;;;;;5057552;28;20025;-88
2021/01/29 00:59:57;;;;;;;11.52;6.95;;;-1.40;94.20;;;;;;5056385;28;20021;-89
2021/01/29 01:02:22;;;;;;;10.20;6.65;;;-1.50;94.20;;;;;;5056373;28;20087;-89
2021/01/29 01:04:48;;;;;;;10.52;6.82;;;-1.50;94.20;;;;;;5056192;28;20588;-89
2021/01/29 01:07:14;;;;;;;9.80;7.05;;;-1.50;94.20;;;;;;5057253;28;20500;-88
2021/01/29 01:09:41;;;;;;;9.88;6.63;;;-1.60;94.20;;;;;;5056125;28;20441;-88
2021/01/29 01:12:07;;;;;;;9.43;6.50;;;-1.60;94.10;;;;;;5056529;28;20356;-89
2021/01/29 01:14:34;;;;;;;10.50;7.07;;;-1.70;94.20;;;;;;5056110;28;20025;-89
2021/01/29 01:17:00;;;;;;;10.73;6.70;;;-1.70;94.10;;;;;;5056187;28;20524;-89
2021/01/29 01:19:25;;;;;;;9.93;6.60;;;-1.70;94.20;;;;;;5056249;28;20033;-90
2021/01/29 01:21:51;;;;;;;9.57;6.50;;;-1.80;94.20;;;;;;5060927;28;20028;-90
2021/01/29 01:24:17;;;;;;;9.82;7.00;;;-1.80;94.20;;;;;;5065557;28;20033;-89
2021/01/29 01:26:43;;;;;;;13.88;7.20;;;-1.80;94.30;;;;;;5056098;28;20052;-89
2021/01/29 01:29:08;;;;;;;10.10;6.90;;;-1.90;94.20;;;;;;5057166;28;20100;-88
2021/01/29 01:31:34;;;;;;;10.80;6.63;;;-1.90;94.10;;;;;;5056164;28;20025;-88
2021/01/29 01:34:00;;;;;;;11.25;6.55;;;-1.90;94.20;;;;;;5056034;28;20111;-91
2021/01/29 01:36:26;;;;;;;12.35;7.07;;;-1.90;94.20;;;;;;5055885;28;20110;-89
2021/01/29 01:38:52;;;;;;;11.10;7.50;;;-1.90;94.30;;;;;;5055703;28;20031;-89
2021/01/29 01:41:18;;;;;;;12.90;7.15;;;-2.00;94.20;;;;;;5055404;28;20047;-89
2021/01/29 01:43:43;;;;;;;13.60;8.02;;;-2.00;94.20;;;;;;5055961;28;20082;-89
2021/01/29 01:46:12;;;;;;;12.30;7.50;;;-2.00;94.20;;;;;;5055791;28;20029;-89
2021/01/29 01:48:41;;;;;;;15.95;7.97;;;-1.90;94.20;;;;;;5055750;28;20029;-89
2021/01/29 01:51:12;;;;;;;13.45;8.18;;;-2.00;94.20;;;;;;5055880;28;20463;-89
2021/01/29 01:53:44;;;;;;;15.60;8.02;;;-2.00;94.20;;;;;;5055497;28;20028;-89
2021/01/29 01:56:19;;;;;;;12.45;7.25;;;-2.00;94.20;;;;;;5055715;28;20057;-89
2021/01/29 01:59:03;;;;;;;11.32;7.78;;;-2.00;94.20;;;;;;5056608;28;20496;-89
2021/01/29 02:01:31;;;;;;;13.23;8.48;;;-2.00;94.30;;;;;;5055187;28;20029;-89
2021/01/29 02:03:59;;;;;;;15.57;9.00;;;-2.00;94.30;;;;;;5055542;28;20517;-88
2021/01/29 02:06:27;;;;;;;11.57;7.50;;;-2.00;94.30;;;;;;5055382;28;20029;-89
2021/01/29 02:08:57;;;;;;;14.25;8.98;;;-2.00;94.30;;;;;;5055194;28;20041;-89
2021/01/29 02:11:23;;;;;;;14.38;8.57;;;-2.00;94.30;;;;;;5055512;28;20029;-88
2021/01/29 02:13:49;;;;;;;16.08;9.45;;;-2.00;94.30;;;;;;5055232;28;20051;-88
2021/01/29 02:16:57;;;;;;;15.80;9.23;;;-2.00;94.30;;;;;;5055189;28;20382;-88
2021/01/29 02:19:38;;;;;;;14.90;9.00;;;-2.00;94.30;;;;;;5044528;28;20037;-88
2021/01/29 02:22:03;;;;;;;;;;;-2.00;94.40;;;;;;5055468;28;20139;-88
2021/01/29 02:24:38;;;;;;;14.25;8.77;;;-2.00;94.40;;;;;;5055338;28;20004;-88
2021/01/29 02:27:16;;;;;;;14.82;10.27;;;-2.00;94.40;;;;;;5054847;28;20063;-88
2021/01/29 02:30:09;;;;;;;17.73;9.90;;;-2.00;94.20;;;;;;5054983;28;20072;-88
2021/01/29 02:33:02;;;;;;;17.52;9.68;;;-2.00;94.40;;;;;;5054787;28;20029;-88
2021/01/29 02:36:01;;;;;;;20.25;11.50;;;-1.90;94.50;;;;;;5034789;28;20022;-88
2021/01/29 02:38:48;;;;;;;16.73;10.02;;;-1.90;94.50;;;;;;5036434;28;20022;-88
2021/01/29 02:41:38;;;;;;;18.35;10.93;;;-1.90;94.60;;;;;;5034726;28;20025;-88
2021/01/29 02:44:30;;;;;;;19.90;11.27;;;-1.90;94.50;;;;;;5036058;28;20025;-88
2021/01/29 02:47:00;;;;;;;17.13;10.13;;;-1.90;94.50;;;;;;5034637;28;20029;-88
2021/01/29 02:49:41;;;;;;;14.60;9.18;;;-1.90;94.50;;;;;;5034692;28;20103;-88
2021/01/29 02:52:19;;;;;;;21.30;10.82;;;-1.90;94.50;;;;;;5033703;28;20025;-88
2021/01/29 02:54:50;;;;;;;18.50;9.98;;;-1.90;94.40;;;;;;5034344;28;20399;-88
2021/01/29 02:57:42;;;;;;;19.58;10.52;;;-1.90;94.40;;;;;;5034325;28;20029;-88
2021/01/29 03:00:13;;;;;;;15.68;9.57;;;-1.90;94.30;;;;;;5031601;28;20033;-88
2021/01/29 03:02:50;;;;;;;16.17;9.73;;;-1.90;94.20;;;;;;5054387;28;20082;-88
2021/01/29 03:05:19;;;;;;;14.32;9.40;;;-1.90;94.30;;;;;;5055132;28;20028;-88
2021/01/29 03:08:02;;;;;;;16.17;9.27;;;-1.90;94.30;;;;;;5062951;28;20045;-88
2021/01/29 03:10:58;;;;;;;13.57;9.10;;;-1.90;94.10;;;;;;5054173;28;20025;-88
2021/01/29 03:13:45;;;;;;;13.00;8.88;;;-1.90;94.20;;;;;;5054040;28;20021;-88
2021/01/29 03:16:21;;;;;;;13.82;8.77;;;-1.90;94.10;;;;;;5054037;28;20421;-88
2021/01/29 03:18:55;;;;;;;13.07;8.68;;;-2.00;93.50;;;;;;5055094;28;20036;-88
2021/01/29 03:21:25;;;;;;;13.13;8.27;;;-2.10;93.80;;;;;;5054272;28;20036;-88
2021/01/29 03:23:54;;;;;;;;;;;-2.10;94.00;;;;;;5054228;28;20031;-89
2021/01/29 03:26:27;;;;;;;11.88;7.60;;;-2.10;94.00;;;;;;5053848;28;19911;-88
2021/01/29 03:28:57;;;;;;;10.07;7.43;;;-2.10;94.00;;;;;;5053724;28;20483;-88
2021/01/29 03:31:25;;;;;;;10.25;7.28;;;-2.20;93.90;;;;;;5053691;28;20467;-88
2021/01/29 03:34:01;;;;;;;11.43;7.18;;;-2.20;93.90;;;;;;5053613;28;20048;-88
2021/01/29 03:36:32;;;;;;;11.82;6.93;;;-2.20;93.90;;;;;;5054324;28;20025;-88
2021/01/29 03:39:09;;;;;;;12.82;8.05;;;-2.20;93.90;;;;;;5053560;28;20024;-88
2021/01/29 03:41:43;;;;;;;13.45;8.18;;;-2.30;93.90;;;;;;5053650;28;20147;-88
2021/01/29 03:44:35;;;;;;;15.02;9.93;;;-2.30;93.80;;;;;;5053693;28;20079;-89
2021/01/29 03:47:00;;;;;;;14.90;8.23;;;-2.40;93.30;;;;;;5053557;28;20021;-87
2021/01/29 03:49:53;;;;;;;12.57;8.23;;;-2.30;93.90;;;;;;5053478;28;20364;-88
2021/01/29 03:52:33;;;;;;;11.57;7.35;;;-2.30;93.90;;;;;;5053748;28;20025;-88
2021/01/29 03:55:20;;;;;;;12.57;7.88;;;-2.40;93.80;;;;;;5053108;28;20492;-88
2021/01/29 03:58:01;;;;;;;13.90;7.90;;;-2.40;93.60;;;;;;5054473;28;20025;-89
2021/01/29 04:00:42;;;;;;;11.32;7.97;;;-2.40;93.80;;;;;;5052743;28;20029;-90
2021/01/29 04:03:34;;;;;;;13.93;8.50;;;-2.50;93.80;;;;;;5053059;28;20021;-88
2021/01/29 04:06:22;;;;;;;13.60;7.97;;;-2.50;93.70;;;;;;5033452;28;20021;-88
2021/01/29 04:09:12;;;;;;;16.20;10.23;;;-2.60;93.70;;;;;;5033087;28;20049;-88
2021/01/29 04:11:50;;;;;;;17.55;9.52;;;-2.60;93.70;;;;;;5033370;28;20053;-89
2021/01/29 04:14:46;;;;;;;16.98;10.25;;;-2.60;93.80;;;;;;5034767;28;20032;-89
2021/01/29 04:17:23;;;;;;;16.75;9.65;;;-2.70;93.30;;;;;;5033492;28;20033;-88
2021/01/29 04:19:52;;;;;;;15.25;8.75;;;-2.70;93.40;;;;;;5032931;28;20033;-88
2021/01/29 04:22:29;;;;;;;12.60;7.60;;;-2.70;93.70;;;;;;5033243;28;20053;-88
2021/01/29 04:25:19;;;;;;;13.18;8.00;;;-2.70;93.80;;;;;;5033051;28;20029;-89
2021/01/29 04:27:48;;;;;;;13.63;7.85;;;-2.70;93.90;;;;;;5033223;28;20026;-88
2021/01/29 04:30:22;;;;;;;13.65;8.18;;;-2.60;94.00;;;;;;5032996;28;20422;-89
2021/01/29 04:32:55;;;;;;;16.42;9.95;;;-2.60;94.00;;;;;;5034015;28;20026;-88
2021/01/29 04:35:22;;;;;;;13.43;8.50;;;-2.70;93.50;;;;;;5039984;28;20071;-88
2021/01/29 04:38:08;;;;;;;13.93;8.55;;;-2.60;93.90;;;;;;5052756;28;20021;-87
2021/01/29 04:40:59;;;;;;;17.50;8.77;;;-2.70;93.40;;;;;;5053110;28;20021;-88
2021/01/29 04:43:38;;;;;;;11.30;7.90;;;-2.70;93.70;;;;;;5052837;28;20025;-88
2021/01/29 04:46:17;;;;;;;14.63;8.65;;;-2.60;93.80;;;;;;5052790;28;20021;-88
2021/01/29 04:49:07;;;;;;;15.25;8.88;;;-2.60;93.70;;;;;;5052837;28;20032;-87
2021/01/29 04:52:11;;;;;;;13.82;9.20;;;-2.60;93.60;;;;;;5053931;28;20017;-87
2021/01/29 04:55:01;;;;;;;15.70;9.00;;;-2.60;93.50;;;;;;5054771;28;20021;-89
2021/01/29 04:58:00;;;;;;;17.50;10.60;;;-2.60;93.90;;;;;;5053688;28;20025;-87
2021/01/29 05:01:07;;;;;;;19.27;11.38;;;-2.60;93.80;;;;;;5053352;28;20032;-87
2021/01/29 05:04:03;;;;;;;18.23;11.48;;;-2.60;93.30;;;;;;5052508;28;20027;-87
2021/01/29 05:06:46;;;;;;;18.77;11.02;;;-2.60;93.30;;;;;;5052863;28;20024;-87
2021/01/29 05:09:15;;;;;;;16.75;10.85;;;-2.60;93.80;;;;;;5052641;28;20099;-87
2021/01/29 05:12:02;;;;;;;16.25;10.52;;;-2.60;93.40;;;;;;5052420;28;20017;-87
2021/01/29 05:14:33;;;;;;;19.08;11.82;;;-2.60;93.20;;;;;;5052570;28;20060;-87
2021/01/29 05:17:18;;;;;;;18.55;11.57;;;-2.60;93.40;;;;;;5055180;28;20025;-87
2021/01/29 05:20:04;;;;;;;19.90;12.57;;;-2.60;92.10;;;;;;5056418;28;20025;-91
2021/01/29 05:22:56;;;;;;;21.05;12.48;;;-2.60;92.50;;;;;;5055689;28;20120;-87
2021/01/29 05:25:50;;;;;;;23.10;13.10;;;-2.70;92.60;;;;;;5056147;28;20478;-87
2021/01/29 05:28:36;;;;;;;26.45;14.48;;;-2.60;92.60;;;;;;5055989;28;20029;-86
2021/01/29 05:31:05;;;;;;;22.08;14.07;;;-2.70;92.40;;;;;;5055948;28;20379;-87
2021/01/29 05:33:45;;;;;;;27.65;15.40;;;-2.70;92.70;;;;;;5055899;28;20021;-87
2021/01/29 05:36:31;;;;;;;26.75;15.95;;;-2.70;92.80;;;;;;5056094;28;20032;-86
2021/01/29 05:39:24;;;;;;;24.25;14.38;;;-2.70;92.70;;;;;;5056085;28;20033;-89
2021/01/29 05:42:26;;;;;;;26.27;15.95;;;-2.70;92.40;;;;;;5055581;28;20389;-89
2021/01/29 05:45:11;;;;;;;28.23;15.18;;;-2.70;92.90;;;;;;5055630;28;20074;-88
2021/01/29 05:47:56;;;;;;;21.42;13.57;;;-2.70;92.70;;;;;;5056771;28;20025;-93
2021/01/29 05:50:41;;;;;;;24.67;13.70;;;-2.80;92.20;;;;;;5056802;28;20036;-93
2021/01/29 05:53:15;;;;;;;25.27;15.13;;;-2.90;91.90;;;;;;5055640;28;20031;-93
2021/01/29 05:56:11;;;;;;;26.38;15.48;;;-2.80;92.60;;;;;;5055836;28;20025;-93
2021/01/29 05:59:05;;;;;;;24.67;14.68;;;-3.00;91.30;;;;;;5052818;28;20024;-94
2021/01/29 06:02:07;;;;;;;30.38;17.73;;;-3.10;90.80;;;;;;5055657;28;20048;-94
2021/01/29 06:05:11;;;;;;;35.85;18.95;;;-3.10;92.20;;;;;;5055824;28;20114;-89
2021/01/29 06:08:14;;;;;;;30.17;16.13;;;-3.10;91.70;;;;;;5056083;28;20532;-91
2021/01/29 06:10:45;;;;;;;31.08;15.48;;;-3.10;91.90;;;;;;5056207;28;20111;-95
2021/01/29 06:13:26;;;;;;;28.80;15.35;;;-3.10;92.00;;;;;;5056034;28;20078;-96
2021/01/29 06:16:23;;;;;;;25.90;14.40;;;-3.20;91.80;;;;;;5055897;28;20029;-94
2021/01/29 06:19:37;;;;;;;25.67;15.38;;;-3.10;92.40;;;;;;5055555;28;20075;-94
2021/01/29 06:22:41;;;;;;;27.17;15.45;;;-3.20;91.50;;;;;;5045558;28;20033;-94
2021/01/29 06:25:44;;;;;;;37.20;17.48;;;-3.20;91.70;;;;;;5052478;28;20071;-93
2021/01/29 06:28:28;;;;;;;28.90;16.23;;;-3.20;92.40;;;;;;5054732;28;20040;-94
2021/01/29 06:31:18;;;;;;;26.42;15.18;;;-3.20;92.60;;;;;;5054511;28;20056;-93
2021/01/29 06:34:25;;;;;;;29.75;16.25;;;-3.10;92.80;;;;;;5054901;28;20032;-94
2021/01/29 06:37:16;;;;;;;31.63;17.13;;;-3.10;92.80;;;;;;5061198;28;20013;-94
2021/01/29 06:39:55;;;;;;;;;;;-3.10;92.70;;;;;;5069137;28;20025;-93
2021/01/29 06:42:31;;;;;;;39.42;20.20;;;-3.20;92.50;;;;;;5055704;28;19904;-93
2021/01/29 06:45:11;;;;;;;43.33;21.92;;;-3.20;92.10;;;;;;5054406;28;20028;-93
2021/01/29 06:48:05;;;;;;;34.67;17.90;;;-3.30;91.20;;;;;;5054053;28;20060;-93
2021/01/29 06:50:32;;;;;;;28.92;16.20;;;-3.30;91.00;;;;;;5054085;28;20063;-93
2021/01/29 06:53:34;;;;;;;31.38;17.10;;;-3.50;90.20;;;;;;5054613;28;20391;-93
2021/01/29 06:56:19;;;;;;;36.03;17.27;;;-3.50;90.60;;;;;;5054055;28;20100;-93
2021/01/29 06:58:57;;;;;;;34.10;17.92;;;-3.50;91.50;;;;;;5053761;28;20108;-93
2021/01/29 07:01:50;;;;;;;52.67;25.83;;;-3.40;92.10;;;;;;5054404;28;20115;-93
2021/01/29 07:04:53;;;;;;;71.45;30.25;;;-3.30;91.40;;;;;;5053652;28;20029;-93
2021/01/29 07:07:28;;;;;;;40.80;20.52;;;-3.20;91.10;;;;;;5056989;28;20115;-92
2021/01/29 07:10:15;;;;;;;37.28;19.30;;;-3.10;91.10;;;;;;5054592;28;20032;-94
2021/01/29 07:12:59;;;;;;;48.28;22.88;;;-2.90;91.40;;;;;;5054132;28;20028;-94
2021/01/29 07:15:44;;;;;;;48.25;24.13;;;-2.60;92.10;;;;;;5053718;28;20025;-94
2021/01/29 07:18:16;;;;;;;40.40;19.63;;;-2.60;90.50;;;;;;5053387;28;20120;-94
2021/01/29 07:20:53;;;;;;;35.92;18.80;;;-2.50;91.10;;;;;;5054347;28;20455;-94
2021/01/29 07:23:44;;;;;;;33.58;17.80;;;-2.60;90.50;;;;;;5054010;28;20029;-94
2021/01/29 07:26:18;;;;;;;30.25;16.40;;;-2.70;88.10;;;;;;5053758;28;20082;-90
2021/01/29 07:29:06;;;;;;;29.33;16.48;;;-2.80;88.00;;;;;;5053417;28;20051;-92
2021/01/29 07:32:07;;;;;;;28.63;17.65;;;-2.70;90.30;;;;;;5054473;28;20055;-90
2021/01/29 07:34:32;;;;;;;;;;;-2.70;88.30;;;;;;5051412;28;20083;-94
2021/01/29 07:37:04;;;;;;;36.20;18.60;;;-2.70;88.30;;;;;;5053911;28;19905;-95
2021/01/29 07:39:55;;;;;;;36.70;18.58;;;-2.60;90.40;;;;;;5053360;28;20024;-95
2021/01/29 07:42:28;;;;;;;32.55;18.83;;;-2.70;90.20;;;;;;5053650;28;20021;-94
2021/01/29 07:45:26;;;;;;;35.38;19.55;;;-2.70;89.50;;;;;;5053680;28;20433;-90
2021/01/29 07:48:13;;;;;;;34.53;19.92;;;-2.70;90.00;;;;;;5053114;28;20040;-90
2021/01/29 07:51:01;;;;;;;36.30;18.67;;;-2.70;89.10;;;;;;5052974;28;20116;-90
2021/01/29 07:53:48;;;;;;;29.25;16.70;;;-2.70;87.80;;;;;;5053064;28;20018;-92
2021/01/29 07:56:35;;;;;;;30.10;16.42;;;-2.70;89.90;;;;;;5053206;28;20060;-93
2021/01/29 07:59:20;;;;;;;32.22;16.95;;;-2.70;86.70;;;;;;5053227;28;20059;-92
2021/01/29 08:01:51;;;;;;;39.10;20.77;;;-2.60;88.70;;;;;;5054395;28;20120;-92
2021/01/29 08:04:47;;;;;;;43.50;23.83;;;-2.60;89.10;;;;;;5054288;28;20021;-93
2021/01/29 08:07:21;;;;;;;38.58;21.35;;;-2.50;88.60;;;;;;5030813;28;20034;-88
2021/01/29 08:09:59;;;;;;;38.08;20.73;;;-2.50;88.60;;;;;;5033331;28;20038;-92
2021/01/29 08:12:27;;;;;;;39.30;20.52;;;-2.40;90.20;;;;;;5033399;28;20137;-92
2021/01/29 08:15:27;;;;;;;35.63;19.80;;;-2.30;90.00;;;;;;5033254;28;20026;-91
2021/01/29 08:18:10;;;;;;;36.00;19.77;;;-2.30;86.70;;;;;;5032804;28;20033;-91
2021/01/29 08:20:45;;;;;;;33.60;18.48;;;-2.30;87.40;;;;;;5032697;28;20286;-93
2021/01/29 08:23:38;;;;;;;36.05;19.40;;;-2.20;89.60;;;;;;5032990;28;20493;-94
2021/01/29 08:26:07;;;;;;;44.38;22.00;;;-2.20;87.20;;;;;;5033646;28;20026;-91
2021/01/29 08:29:03;;;;;;;50.10;23.27;;;-2.20;87.40;;;;;;5033340;28;20040;-91
2021/01/29 08:31:51;;;;;;;43.85;23.45;;;-2.20;87.20;;;;;;5033983;28;20021;-91
2021/01/29 08:34:41;;;;;;;36.30;20.17;;;-2.20;87.10;;;;;;5033064;28;20541;-92
2021/01/29 08:37:15;;;;;;;31.67;18.67;;;-2.10;89.10;;;;;;5033039;28;20029;-93
2021/01/29 08:40:00;;;;;;;34.00;18.30;;;-2.30;86.30;;;;;;5032257;28;20040;-92
2021/01/29 08:42:53;;;;;;;32.78;17.83;;;-2.20;86.90;;;;;;5032516;28;20030;-92
2021/01/29 08:45:23;;;;;;;33.58;19.10;;;-2.10;89.20;;;;;;5032601;28;20052;-92
2021/01/29 08:48:07;;;;;;;31.92;19.67;;;-2.10;89.70;;;;;;5032688;28;20479;-92
2021/01/29 08:51:00;;;;;;;35.92;19.75;;;-2.20;85.70;;;;;;5033191;28;20376;-93
2021/01/29 08:53:50;;;;;;;36.80;20.35;;;-2.20;86.10;;;;;;5036276;28;20021;-93
2021/01/29 08:57:05;;;;;;;29.48;18.25;;;-2.10;88.40;;;;;;5035940;28;20026;-92
2021/01/29 08:59:34;;;;;;;34.58;19.13;;;-2.10;85.10;;;;;;5028431;28;20392;-93
2021/01/29 09:02:13;;;;;;;33.13;19.10;;;-2.00;87.60;;;;;;5036166;28;20026;-95
2021/01/29 09:04:50;;;;;;;33.45;19.10;;;-2.10;87.80;;;;;;5036681;28;20037;-93
2021/01/29 09:07:26;;;;;;;31.98;18.42;;;-2.10;85.40;;;;;;5036824;28;20059;-93
2021/01/29 09:09:54;;;;;;;31.20;17.95;;;-2.10;87.80;;;;;;5036362;28;20037;-94
2021/01/29 09:12:25;;;;;;;32.42;19.08;;;-2.10;87.90;;;;;;5036593;28;20025;-94
2021/01/29 09:14:54;;;;;;;33.70;19.90;;;-2.10;86.10;;;;;;5036812;28;20079;-94
2021/01/29 09:17:39;;;;;;;36.60;20.02;;;-2.10;86.00;;;;;;5036348;28;20120;-94
2021/01/29 09:20:07;;;;;;;37.58;22.05;;;-2.10;87.50;;;;;;5036639;28;20588;-94
2021/01/29 09:22:50;;;;;;;40.88;20.35;;;-2.00;86.80;;;;;;5036369;28;20022;-94
2021/01/29 09:25:45;;;;;;;35.78;19.52;;;-1.90;87.50;;;;;;5037881;28;20071;-90
2021/01/29 09:28:18;;;;;;;36.55;18.90;;;-1.80;88.80;;;;;;5035870;28;20029;-91
2021/01/29 09:31:02;;;;;;;38.95;21.10;;;-1.80;86.10;;;;;;5035708;28;20108;-90
2021/01/29 09:33:49;;;;;;;34.58;20.55;;;-1.90;87.30;;;;;;5035949;28;20100;-90
2021/01/29 09:36:39;;;;;;;38.50;20.08;;;-1.90;87.20;;;;;;5035889;28;20040;-91
2021/01/29 09:39:19;;;;;;;36.63;20.27;;;-1.90;87.60;;;;;;5036403;28;20030;-90
2021/01/29 09:41:59;;;;;;;41.57;24.20;;;-1.90;90.30;;;;;;5037778;28;20388;-90
2021/01/29 09:44:27;;;;;;;45.40;25.02;;;-2.10;90.90;;;;;;5038741;28;20515;-94
2021/01/29 09:46:56;;;;;;;55.17;30.52;;;-2.10;92.80;;;;;;5049195;28;20053;-94
2021/01/29 09:49:26;;;;;;;51.72;30.13;;;-2.10;91.90;;;;;;5069664;28;20033;-94
2021/01/29 09:52:07;;;;;;;51.00;25.00;;;-2.30;91.80;;;;;;5057391;28;20025;-96
2021/01/29 09:55:04;;;;;;;48.63;25.00;;;-2.10;93.20;;;;;;5056267;28;20025;-94
2021/01/29 09:57:55;;;;;;;50.08;25.40;;;-2.10;92.60;;;;;;5055492;28;20037;-93
2021/01/29 10:00:27;;;;;;;49.55;26.55;;;-2.10;92.80;;;;;;5055757;28;20021;-93
2021/01/29 10:03:02;;;;;;;51.00;26.65;;;-2.30;91.80;;;;;;5055086;28;20379;-93
2021/01/29 10:05:54;;;;;;;50.63;25.80;;;-2.20;92.10;;;;;;5055860;28;20112;-96
2021/01/29 10:08:28;;;;;;;54.67;27.08;;;-2.20;92.40;;;;;;5054803;28;20075;-92
2021/01/29 10:11:18;;;;;;;49.42;28.70;;;-2.30;92.80;;;;;;5055152;28;20049;-90
2021/01/29 10:13:53;;;;;;;71.18;37.00;;;-2.40;92.90;;;;;;5054850;28;20060;-90
2021/01/29 10:16:53;;;;;;;97.05;50.65;;;-2.40;93.50;;;;;;5054404;28;20025;-90
2021/01/29 10:19:22;;;;;;;69.95;39.28;;;-2.30;93.50;;;;;;5054824;28;20093;-91
2021/01/29 10:21:57;;;;;;;75.55;37.95;;;-2.20;92.90;;;;;;5052948;28;20033;-90
2021/01/29 10:24:40;;;;;;;58.67;29.13;;;-2.30;92.50;;;;;;5055999;28;20024;-90
2021/01/29 10:27:13;;;;;;;56.08;29.38;;;-2.20;92.50;;;;;;5057241;28;20142;-90
2021/01/29 10:29:44;;;;;;;53.58;27.95;;;-2.30;91.90;;;;;;5053796;28;20128;-92
2021/01/29 10:32:13;;;;;;;;;;;-2.50;91.80;;;;;;5055359;28;20017;-90
2021/01/29 10:34:48;;;;;;;57.05;27.75;;;-2.40;92.80;;;;;;5054498;28;19904;-90
2021/01/29 10:37:32;;;;;;;54.38;29.23;;;-2.40;92.80;;;;;;5052745;28;20017;-90
2021/01/29 10:40:24;;;;;;;60.00;30.35;;;-2.50;92.20;;;;;;5053006;28;20116;-91
2021/01/29 10:43:04;;;;;;;63.85;32.65;;;-2.40;93.30;;;;;;5053201;28;20032;-91
2021/01/29 10:45:47;;;;;;;;;;;-2.60;92.50;;;;;;5053581;28;20021;-91
2021/01/29 10:48:31;;;;;;;58.75;29.48;;;-2.60;92.90;;;;;;5052498;28;20341;-91
2021/01/29 10:51:21;;;;;;;64.22;31.13;;;-2.60;93.00;;;;;;5052440;28;20033;-90
2021/01/29 10:53:47;;;;;;;66.80;32.10;;;-2.60;92.80;;;;;;5041951;28;20040;-90
2021/01/29 10:56:16;;;;;;;62.45;29.75;;;-2.60;93.10;;;;;;5052729;28;20258;-89
2021/01/29 10:59:04;;;;;;;61.63;32.43;;;-2.60;93.00;;;;;;5054375;28;20021;-90
2021/01/29 11:01:37;;;;;;;62.03;31.27;;;-2.50;93.20;;;;;;5052978;28;20387;-90
2021/01/29 11:04:22;;;;;;;67.93;34.10;;;-2.50;92.40;;;;;;5051964;28;20047;-91
2021/01/29 11:06:54;;;;;;;76.53;35.60;;;-2.50;93.70;;;;;;5052246;28;20053;-91
2021/01/29 11:09:36;;;;;;;53.28;28.05;;;-2.50;94.20;;;;;;5052116;28;20041;-91
2021/01/29 11:12:31;;;;;;;60.22;29.45;;;-2.40;94.30;;;;;;5051933;28;20043;-90
2021/01/29 11:15:22;;;;;;;58.40;29.15;;;-2.40;94.10;;;;;;5051406;28;20043;-92
2021/01/29 11:18:02;;;;;;;55.90;28.08;;;-2.40;93.70;;;;;;5051829;28;20100;-90
2021/01/29 11:20:35;;;;;;;58.58;28.42;;;-2.40;94.00;;;;;;5053401;28;20029;-91
2021/01/29 11:23:21;;;;;;;54.70;26.65;;;-2.40;93.30;;;;;;5053321;28;20029;-89
2021/01/29 11:25:53;;;;;;;53.30;27.92;;;-2.30;93.30;;;;;;5053427;28;20077;-90
2021/01/29 11:28:31;;;;;;;58.78;30.05;;;-2.30;92.90;;;;;;5053953;28;20178;-90
2021/01/29 11:31:44;;;;;;;56.33;29.95;;;-2.20;93.00;;;;;;5070750;28;20017;-89
2021/01/29 11:34:22;;;;;;;52.92;27.45;;;-2.20;93.00;;;;;;5025407;28;20025;-90
2021/01/29 11:37:13;;;;;;;55.30;29.20;;;-2.10;93.00;;;;;;5060583;28;20021;-89
2021/01/29 11:39:51;;;;;;;;;;;-2.10;93.00;;;;;;5066174;28;20020;-93
2021/01/29 11:42:27;;;;;;;49.55;26.35;;;-2.00;93.00;;;;;;5055138;28;19992;-92
2021/01/29 11:45:14;;;;;;;65.55;34.83;;;-2.00;93.00;;;;;;5056434;28;20029;-91
2021/01/29 11:47:54;;;;;;;80.57;38.55;;;-1.90;92.90;;;;;;5053535;28;20120;-92
2021/01/29 11:50:35;;;;;;;64.65;32.10;;;-1.90;92.80;;;;;;5053642;28;20064;-93
2021/01/29 11:53:07;;;;;;;54.45;27.48;;;-1.80;92.90;;;;;;5053887;28;20080;-91
2021/01/29 11:55:44;;;;;;;56.03;27.15;;;-1.80;92.80;;;;;;5059717;28;20045;-95
2021/01/29 11:58:30;;;;;;;53.42;31.40;;;-1.80;92.70;;;;;;5055452;28;20028;-96
2021/01/29 12:01:02;;;;;;;48.75;27.15;;;-1.80;92.40;;;;;;5055747;28;20056;-95
2021/01/29 12:03:42;;;;;;;46.10;23.48;;;-1.80;92.60;;;;;;5053947;28;20082;-96
2021/01/29 12:06:22;;;;;;;49.00;25.73;;;-1.80;92.80;;;;;;5054258;28;20040;-96
2021/01/29 12:09:06;;;;;;;48.10;25.40;;;-1.80;92.70;;;;;;5053990;28;20048;-96
2021/01/29 12:11:44;;;;;;;47.33;23.80;;;-1.80;92.80;;;;;;5053721;28;20029;-93
2021/01/29 12:14:19;;;;;;;46.58;24.55;;;-1.80;93.20;;;;;;5053512;28;20044;-93
2021/01/29 12:16:53;;;;;;;43.47;22.70;;;-1.80;92.90;;;;;;5053461;28;20029;-92
2021/01/29 12:19:34;;;;;;;42.92;22.08;;;-1.80;92.90;;;;;;5053310;28;20021;-92
2021/01/29 12:22:39;;;;;;;44.50;23.75;;;-1.70;92.70;;;;;;5051782;28;20364;-92
2021/01/29 12:25:42;;;;;;;44.92;25.00;;;-1.70;92.80;;;;;;5056035;28;20071;-94
2021/01/29 12:28:44;;;;;;;56.58;27.52;;;-1.80;92.70;;;;;;5057096;28;20457;-89
2021/01/29 12:31:44;;;;;;;51.20;26.77;;;-1.70;92.80;;;;;;5057365;28;20025;-95
2021/01/29 12:34:16;;;;;;;47.20;25.20;;;-1.70;92.60;;;;;;5056263;28;20479;-92
2021/01/29 12:36:54;;;;;;;64.22;30.05;;;-1.70;92.80;;;;;;5055733;28;20072;-89
2021/01/29 12:39:24;;;;;;;50.72;26.48;;;-1.70;92.90;;;;;;5055228;28;20044;-89
2021/01/29 12:42:06;;;;;;;49.95;23.83;;;-1.70;92.90;;;;;;5055999;28;20115;-90
2021/01/29 12:44:35;;;;;;;46.72;24.00;;;-1.60;92.80;;;;;;5057264;28;20120;-90
2021/01/29 12:47:14;;;;;;;60.17;29.17;;;-1.60;92.70;;;;;;5057558;28;20029;-91
2021/01/29 12:49:49;;;;;;;61.80;29.80;;;-1.60;92.60;;;;;;5055374;28;20029;-91
2021/01/29 12:52:25;;;;;;;62.20;31.30;;;-1.50;92.70;;;;;;5055719;28;20032;-93
2021/01/29 12:55:04;;;;;;;56.47;28.45;;;-1.60;92.80;;;;;;5056714;28;20475;-92
2021/01/29 12:57:32;;;;;;;55.08;28.70;;;-1.60;93.00;;;;;;5055694;28;20055;-91
2021/01/29 13:00:04;;;;;;;56.40;30.27;;;-1.60;92.90;;;;;;5056320;28;20021;-89
2021/01/29 13:02:54;;;;;;;62.22;29.48;;;-1.60;92.80;;;;;;5055079;28;20532;-89
2021/01/29 13:05:45;;;;;;;56.37;28.83;;;-1.50;92.70;;;;;;5054921;28;20467;-88
2021/01/29 13:08:29;;;;;;;;;;;-1.50;92.70;;;;;;5055253;28;20124;-87
2021/01/29 13:11:04;;;;;;;54.83;28.83;;;-1.60;92.70;;;;;;5055470;28;19932;-90
2021/01/29 13:14:03;;;;;;;52.97;26.90;;;-1.60;92.40;;;;;;5062420;28;20116;-88
2021/01/29 13:17:06;;;;;;;54.78;28.33;;;-1.50;92.70;;;;;;5054684;28;20029;-89
2021/01/29 13:19:38;;;;;;;49.38;25.90;;;-1.70;92.70;;;;;;5054616;28;20546;-89
2021/01/29 13:22:34;;;;;;;49.00;26.10;;;-1.60;92.90;;;;;;5056315;28;20025;-90
2021/01/29 13:27:32;;;;;;;55.72;30.52;;;-1.70;92.60;;;;;;5092537;28;20362;-90
2021/01/29 13:30:16;;;;;;;52.13;25.95;;;-1.70;92.70;;;;;;5090803;28;20420;-89
2021/01/29 13:32:43;;;;;;;56.40;29.88;;;-1.60;92.80;;;;;;5090868;28;20119;-85
2021/01/29 13:35:12;;;;;;;51.72;26.98;;;-1.80;92.60;;;;;;5090615;28;20060;-85
2021/01/29 13:37:38;;;;;;;46.50;24.70;;;-1.80;92.90;;;;;;5091923;28;20024;-88
2021/01/29 13:40:07;;;;;;;51.95;26.85;;;-1.70;93.00;;;;;;5090606;28;20024;-88